sensor_id;sensor_type;location;lat;lon;timestamp;P1;durP1;ratioP1;P2;durP2;ratioP2
20731;SDS011;10527;52.124;5.196;2022-10-22T00:00:08;3.72;;;1.98;;
20731;SDS011;10527;52.124;5.196;2022-10-22T00:02:39;3.17;;;1.90;;
20731;SDS011;10527;52.124;5.196;2022-10-22T00:05:07;2.25;;;1.73;;
20731;SDS011;10527;52.124;5.196;2022-10-22T00:07:34;2.60;;;1.58;;
20731;SDS011;10527;52.124;5.196;2022-10-22T00:10:02;4.75;;;1.60;;
20731;SDS011;10527;52.124;5.196;2022-10-22T00:12:31;2.13;;;1.45;;
20731;SDS011;10527;52.124;5.196;2022-10-22T00:14:58;3.55;;;1.95;;
20731;SDS011;10527;52.124;5.196;2022-10-22T00:17:25;3.78;;;1.80;;
20731;SDS011;10527;52.124;5.196;2022-10-22T00:19:59;4.25;;;2.03;;
20731;SDS011;10527;52.124;5.196;2022-10-22T00:22:26;4.10;;;1.77;;
20731;SDS011;10527;52.124;5.196;2022-10-22T00:24:52;3.50;;;1.88;;
20731;SDS011;10527;52.124;5.196;2022-10-22T00:27:19;4.15;;;1.77;;
20731;SDS011;10527;52.124;5.196;2022-10-22T00:29:53;5.32;;;2.17;;
20731;SDS011;10527;52.124;5.196;2022-10-22T00:32:20;5.32;;;1.92;;
20731;SDS011;10527;52.124;5.196;2022-10-22T00:34:47;3.97;;;2.00;;
20731;SDS011;10527;52.124;5.196;2022-10-22T00:37:13;3.08;;;2.10;;
20731;SDS011;10527;52.124;5.196;2022-10-22T00:39:40;3.95;;;1.83;;
20731;SDS011;10527;52.124;5.196;2022-10-22T00:42:09;5.57;;;2.17;;
20731;SDS011;10527;52.124;5.196;2022-10-22T00:45:01;5.10;;;2.15;;
20731;SDS011;10527;52.124;5.196;2022-10-22T00:48:08;4.53;;;2.00;;
20731;SDS011;10527;52.124;5.196;2022-10-22T00:50:42;3.22;;;2.40;;
20731;SDS011;10527;52.124;5.196;2022-10-22T00:53:29;3.08;;;1.77;;
20731;SDS011;10527;52.124;5.196;2022-10-22T00:56:03;4.45;;;2.00;;
20731;SDS011;10527;52.124;5.196;2022-10-22T00:58:34;2.67;;;2.00;;
20731;SDS011;10527;52.124;5.196;2022-10-22T01:01:05;5.20;;;2.22;;
20731;SDS011;10527;52.124;5.196;2022-10-22T01:03:37;3.17;;;1.63;;
20731;SDS011;10527;52.124;5.196;2022-10-22T01:06:04;4.28;;;1.95;;
20731;SDS011;10527;52.124;5.196;2022-10-22T01:08:35;5.38;;;1.98;;
20731;SDS011;10527;52.124;5.196;2022-10-22T01:11:21;3.30;;;1.75;;
20731;SDS011;10527;52.124;5.196;2022-10-22T01:22:24;2.63;;;2.30;;
20731;SDS011;10527;52.124;5.196;2022-10-22T01:25:18;5.72;;;1.85;;
20731;SDS011;10527;52.124;5.196;2022-10-22T01:28:13;2.28;;;1.50;;
20731;SDS011;10527;52.124;5.196;2022-10-22T01:31:21;6.72;;;1.85;;
20731;SDS011;10527;52.124;5.196;2022-10-22T01:33:52;4.18;;;2.10;;
20731;SDS011;10527;52.124;5.196;2022-10-22T01:36:20;2.97;;;1.92;;
20731;SDS011;10527;52.124;5.196;2022-10-22T01:38:47;4.45;;;2.30;;
20731;SDS011;10527;52.124;5.196;2022-10-22T01:41:15;5.03;;;2.17;;
20731;SDS011;10527;52.124;5.196;2022-10-22T01:43:42;7.70;;;2.92;;
20731;SDS011;10527;52.124;5.196;2022-10-22T01:46:09;4.00;;;2.15;;
20731;SDS011;10527;52.124;5.196;2022-10-22T01:51:29;2.35;;;1.80;;
20731;SDS011;10527;52.124;5.196;2022-10-22T01:59:57;3.95;;;1.88;;
20731;SDS011;10527;52.124;5.196;2022-10-22T02:08:10;8.27;;;3.25;;
20731;SDS011;10527;52.124;5.196;2022-10-22T02:10:44;5.90;;;2.00;;
20731;SDS011;10527;52.124;5.196;2022-10-22T02:13:26;5.47;;;2.08;;
20731;SDS011;10527;52.124;5.196;2022-10-22T02:16:01;2.55;;;1.73;;
20731;SDS011;10527;52.124;5.196;2022-10-22T02:18:33;3.40;;;1.83;;
20731;SDS011;10527;52.124;5.196;2022-10-22T02:21:06;4.57;;;2.10;;
20731;SDS011;10527;52.124;5.196;2022-10-22T02:23:38;6.35;;;2.35;;
20731;SDS011;10527;52.124;5.196;2022-10-22T02:26:06;4.38;;;2.10;;
20731;SDS011;10527;52.124;5.196;2022-10-22T02:29:05;4.65;;;1.92;;
20731;SDS011;10527;52.124;5.196;2022-10-22T02:32:00;4.82;;;1.98;;
20731;SDS011;10527;52.124;5.196;2022-10-22T02:34:32;5.18;;;2.08;;
20731;SDS011;10527;52.124;5.196;2022-10-22T02:36:59;4.43;;;2.00;;
20731;SDS011;10527;52.124;5.196;2022-10-22T02:39:29;2.90;;;1.50;;
20731;SDS011;10527;52.124;5.196;2022-10-22T02:41:57;4.78;;;2.05;;
20731;SDS011;10527;52.124;5.196;2022-10-22T02:44:27;5.45;;;1.88;;
20731;SDS011;10527;52.124;5.196;2022-10-22T02:46:54;7.68;;;2.08;;
20731;SDS011;10527;52.124;5.196;2022-10-22T02:49:21;5.60;;;1.90;;
20731;SDS011;10527;52.124;5.196;2022-10-22T02:51:47;4.65;;;2.05;;
20731;SDS011;10527;52.124;5.196;2022-10-22T02:56:46;6.40;;;3.30;;
20731;SDS011;10527;52.124;5.196;2022-10-22T02:59:13;4.65;;;1.88;;
20731;SDS011;10527;52.124;5.196;2022-10-22T03:01:39;3.90;;;1.80;;
20731;SDS011;10527;52.124;5.196;2022-10-22T03:04:06;4.63;;;2.10;;
20731;SDS011;10527;52.124;5.196;2022-10-22T03:06:33;3.78;;;1.70;;
20731;SDS011;10527;52.124;5.196;2022-10-22T03:09:00;6.07;;;2.28;;
20731;SDS011;10527;52.124;5.196;2022-10-22T03:11:27;4.20;;;2.03;;
20731;SDS011;10527;52.124;5.196;2022-10-22T03:13:54;4.60;;;2.03;;
20731;SDS011;10527;52.124;5.196;2022-10-22T03:16:20;5.30;;;1.85;;
20731;SDS011;10527;52.124;5.196;2022-10-22T03:18:47;3.90;;;2.22;;
20731;SDS011;10527;52.124;5.196;2022-10-22T03:24:01;4.80;;;1.92;;
20731;SDS011;10527;52.124;5.196;2022-10-22T03:26:34;4.30;;;1.92;;
20731;SDS011;10527;52.124;5.196;2022-10-22T03:29:03;4.50;;;1.90;;
20731;SDS011;10527;52.124;5.196;2022-10-22T03:31:30;5.05;;;1.92;;
20731;SDS011;10527;52.124;5.196;2022-10-22T03:33:57;3.38;;;1.63;;
20731;SDS011;10527;52.124;5.196;2022-10-22T03:36:24;4.38;;;2.00;;
20731;SDS011;10527;52.124;5.196;2022-10-22T03:38:51;3.85;;;2.20;;
20731;SDS011;10527;52.124;5.196;2022-10-22T03:41:18;4.45;;;1.70;;
20731;SDS011;10527;52.124;5.196;2022-10-22T03:43:44;4.43;;;1.73;;
20731;SDS011;10527;52.124;5.196;2022-10-22T03:46:15;2.70;;;2.03;;
20731;SDS011;10527;52.124;5.196;2022-10-22T03:48:41;4.60;;;1.90;;
20731;SDS011;10527;52.124;5.196;2022-10-22T03:51:08;4.88;;;2.40;;
20731;SDS011;10527;52.124;5.196;2022-10-22T03:53:35;5.15;;;2.30;;
20731;SDS011;10527;52.124;5.196;2022-10-22T03:56:06;7.78;;;2.47;;
20731;SDS011;10527;52.124;5.196;2022-10-22T03:58:35;4.95;;;2.28;;
20731;SDS011;10527;52.124;5.196;2022-10-22T04:01:05;2.63;;;2.17;;
20731;SDS011;10527;52.124;5.196;2022-10-22T04:03:38;4.20;;;2.30;;
20731;SDS011;10527;52.124;5.196;2022-10-22T04:06:10;4.15;;;2.13;;
20731;SDS011;10527;52.124;5.196;2022-10-22T04:08:39;5.13;;;2.65;;
20731;SDS011;10527;52.124;5.196;2022-10-22T04:11:11;8.70;;;2.80;;
20731;SDS011;10527;52.124;5.196;2022-10-22T04:13:38;3.55;;;2.38;;
20731;SDS011;10527;52.124;5.196;2022-10-22T04:16:06;3.10;;;2.03;;
20731;SDS011;10527;52.124;5.196;2022-10-22T04:18:38;7.15;;;3.65;;
20731;SDS011;10527;52.124;5.196;2022-10-22T04:21:07;4.57;;;2.72;;
20731;SDS011;10527;52.124;5.196;2022-10-22T04:23:37;3.85;;;1.80;;
20731;SDS011;10527;52.124;5.196;2022-10-22T04:26:05;5.43;;;2.63;;
20731;SDS011;10527;52.124;5.196;2022-10-22T04:28:33;5.78;;;2.28;;
20731;SDS011;10527;52.124;5.196;2022-10-22T04:31:05;3.40;;;2.15;;
20731;SDS011;10527;52.124;5.196;2022-10-22T04:33:37;3.63;;;2.20;;
20731;SDS011;10527;52.124;5.196;2022-10-22T04:36:08;4.68;;;2.05;;
20731;SDS011;10527;52.124;5.196;2022-10-22T04:38:38;5.03;;;2.65;;
20731;SDS011;10527;52.124;5.196;2022-10-22T04:41:08;6.05;;;2.00;;
20731;SDS011;10527;52.124;5.196;2022-10-22T04:43:38;4.22;;;2.15;;
20731;SDS011;10527;52.124;5.196;2022-10-22T04:46:05;4.18;;;2.33;;
20731;SDS011;10527;52.124;5.196;2022-10-22T04:48:35;6.93;;;2.78;;
20731;SDS011;10527;52.124;5.196;2022-10-22T04:51:03;5.75;;;2.35;;
20731;SDS011;10527;52.124;5.196;2022-10-22T04:53:33;5.65;;;2.28;;
20731;SDS011;10527;52.124;5.196;2022-10-22T04:56:09;4.95;;;2.08;;
20731;SDS011;10527;52.124;5.196;2022-10-22T04:58:42;3.95;;;2.35;;
20731;SDS011;10527;52.124;5.196;2022-10-22T05:01:16;5.63;;;2.92;;
20731;SDS011;10527;52.124;5.196;2022-10-22T05:03:47;4.90;;;2.40;;
20731;SDS011;10527;52.124;5.196;2022-10-22T05:06:17;4.82;;;2.05;;
20731;SDS011;10527;52.124;5.196;2022-10-22T05:08:46;4.65;;;2.20;;
20731;SDS011;10527;52.124;5.196;2022-10-22T05:11:19;5.53;;;2.22;;
20731;SDS011;10527;52.124;5.196;2022-10-22T05:13:50;3.75;;;1.88;;
20731;SDS011;10527;52.124;5.196;2022-10-22T05:16:17;6.43;;;2.90;;
20731;SDS011;10527;52.124;5.196;2022-10-22T05:18:43;4.45;;;2.33;;
20731;SDS011;10527;52.124;5.196;2022-10-22T05:21:15;4.07;;;1.92;;
20731;SDS011;10527;52.124;5.196;2022-10-22T05:23:44;8.02;;;2.67;;
20731;SDS011;10527;52.124;5.196;2022-10-22T05:26:14;5.47;;;2.10;;
20731;SDS011;10527;52.124;5.196;2022-10-22T05:28:49;3.92;;;1.77;;
20731;SDS011;10527;52.124;5.196;2022-10-22T05:31:17;5.00;;;2.55;;
20731;SDS011;10527;52.124;5.196;2022-10-22T05:33:44;4.28;;;2.10;;
20731;SDS011;10527;52.124;5.196;2022-10-22T05:36:13;3.60;;;2.15;;
20731;SDS011;10527;52.124;5.196;2022-10-22T05:38:43;4.45;;;1.98;;
20731;SDS011;10527;52.124;5.196;2022-10-22T05:41:12;3.78;;;2.10;;
20731;SDS011;10527;52.124;5.196;2022-10-22T05:44:01;4.80;;;2.05;;
20731;SDS011;10527;52.124;5.196;2022-10-22T05:46:29;8.57;;;3.90;;
20731;SDS011;10527;52.124;5.196;2022-10-22T05:49:01;5.32;;;1.80;;
20731;SDS011;10527;52.124;5.196;2022-10-22T05:51:32;4.47;;;1.67;;
20731;SDS011;10527;52.124;5.196;2022-10-22T05:54:03;4.18;;;2.40;;
20731;SDS011;10527;52.124;5.196;2022-10-22T05:56:33;4.30;;;1.90;;
20731;SDS011;10527;52.124;5.196;2022-10-22T05:59:01;5.97;;;1.92;;
20731;SDS011;10527;52.124;5.196;2022-10-22T06:01:33;6.95;;;2.03;;
20731;SDS011;10527;52.124;5.196;2022-10-22T06:06:39;5.65;;;2.05;;
20731;SDS011;10527;52.124;5.196;2022-10-22T06:09:17;5.65;;;1.60;;
20731;SDS011;10527;52.124;5.196;2022-10-22T06:11:49;4.65;;;2.20;;
20731;SDS011;10527;52.124;5.196;2022-10-22T06:14:18;7.65;;;2.13;;
20731;SDS011;10527;52.124;5.196;2022-10-22T06:16:45;3.80;;;1.58;;
20731;SDS011;10527;52.124;5.196;2022-10-22T06:19:14;6.68;;;1.90;;
20731;SDS011;10527;52.124;5.196;2022-10-22T06:21:44;4.38;;;1.85;;
20731;SDS011;10527;52.124;5.196;2022-10-22T06:24:12;3.85;;;1.80;;
20731;SDS011;10527;52.124;5.196;2022-10-22T06:26:39;3.47;;;1.83;;
20731;SDS011;10527;52.124;5.196;2022-10-22T06:29:06;7.60;;;2.10;;
20731;SDS011;10527;52.124;5.196;2022-10-22T06:31:35;3.97;;;1.70;;
20731;SDS011;10527;52.124;5.196;2022-10-22T06:34:02;5.15;;;1.90;;
20731;SDS011;10527;52.124;5.196;2022-10-22T06:36:33;6.28;;;1.98;;
20731;SDS011;10527;52.124;5.196;2022-10-22T06:39:02;4.95;;;2.08;;
20731;SDS011;10527;52.124;5.196;2022-10-22T06:41:30;4.53;;;1.60;;
20731;SDS011;10527;52.124;5.196;2022-10-22T06:43:57;5.47;;;1.67;;
20731;SDS011;10527;52.124;5.196;2022-10-22T06:46:24;4.43;;;1.70;;
20731;SDS011;10527;52.124;5.196;2022-10-22T06:48:58;7.38;;;2.67;;
20731;SDS011;10527;52.124;5.196;2022-10-22T06:51:28;4.57;;;1.55;;
20731;SDS011;10527;52.124;5.196;2022-10-22T06:53:55;4.70;;;1.60;;
20731;SDS011;10527;52.124;5.196;2022-10-22T06:56:25;7.47;;;1.95;;
20731;SDS011;10527;52.124;5.196;2022-10-22T06:58:54;3.30;;;1.45;;
20731;SDS011;10527;52.124;5.196;2022-10-22T07:01:24;4.72;;;2.28;;
20731;SDS011;10527;52.124;5.196;2022-10-22T07:03:56;3.38;;;1.52;;
20731;SDS011;10527;52.124;5.196;2022-10-22T07:06:24;6.10;;;1.70;;
20731;SDS011;10527;52.124;5.196;2022-10-22T07:09:02;4.90;;;1.50;;
20731;SDS011;10527;52.124;5.196;2022-10-22T07:11:31;3.17;;;1.50;;
20731;SDS011;10527;52.124;5.196;2022-10-22T07:14:11;5.57;;;1.75;;
20731;SDS011;10527;52.124;5.196;2022-10-22T07:16:42;5.68;;;1.77;;
20731;SDS011;10527;52.124;5.196;2022-10-22T07:19:11;5.03;;;1.40;;
20731;SDS011;10527;52.124;5.196;2022-10-22T07:21:38;8.05;;;2.08;;
20731;SDS011;10527;52.124;5.196;2022-10-22T07:24:05;6.25;;;1.42;;
20731;SDS011;10527;52.124;5.196;2022-10-22T07:26:35;4.70;;;1.77;;
20731;SDS011;10527;52.124;5.196;2022-10-22T07:29:02;8.25;;;1.77;;
20731;SDS011;10527;52.124;5.196;2022-10-22T07:31:29;5.32;;;1.67;;
20731;SDS011;10527;52.124;5.196;2022-10-22T07:33:56;3.88;;;1.70;;
20731;SDS011;10527;52.124;5.196;2022-10-22T07:36:23;5.88;;;1.40;;
20731;SDS011;10527;52.124;5.196;2022-10-22T07:38:58;7.70;;;1.90;;
20731;SDS011;10527;52.124;5.196;2022-10-22T07:41:28;10.23;;;1.45;;
20731;SDS011;10527;52.124;5.196;2022-10-22T07:43:56;6.80;;;1.67;;
20731;SDS011;10527;52.124;5.196;2022-10-22T07:46:23;5.22;;;1.60;;
20731;SDS011;10527;52.124;5.196;2022-10-22T07:48:52;7.35;;;2.10;;
20731;SDS011;10527;52.124;5.196;2022-10-22T07:51:19;6.97;;;1.48;;
20731;SDS011;10527;52.124;5.196;2022-10-22T07:53:46;5.55;;;1.27;;
20731;SDS011;10527;52.124;5.196;2022-10-22T07:56:13;7.95;;;1.42;;
20731;SDS011;10527;52.124;5.196;2022-10-22T07:58:39;5.40;;;1.63;;
20731;SDS011;10527;52.124;5.196;2022-10-22T08:01:06;7.22;;;2.15;;
20731;SDS011;10527;52.124;5.196;2022-10-22T08:03:34;7.28;;;1.60;;
20731;SDS011;10527;52.124;5.196;2022-10-22T08:06:00;5.72;;;1.55;;
20731;SDS011;10527;52.124;5.196;2022-10-22T08:08:28;5.65;;;1.27;;
20731;SDS011;10527;52.124;5.196;2022-10-22T08:10:57;8.95;;;1.45;;
20731;SDS011;10527;52.124;5.196;2022-10-22T08:13:30;7.53;;;1.67;;
20731;SDS011;10527;52.124;5.196;2022-10-22T08:15:58;4.85;;;1.38;;
20731;SDS011;10527;52.124;5.196;2022-10-22T08:18:26;6.82;;;1.50;;
20731;SDS011;10527;52.124;5.196;2022-10-22T08:20:54;3.28;;;1.27;;
20731;SDS011;10527;52.124;5.196;2022-10-22T08:23:20;7.43;;;1.50;;
20731;SDS011;10527;52.124;5.196;2022-10-22T08:25:52;8.90;;;3.17;;
20731;SDS011;10527;52.124;5.196;2022-10-22T08:28:19;9.02;;;1.30;;
20731;SDS011;10527;52.124;5.196;2022-10-22T08:30:47;4.43;;;1.38;;
20731;SDS011;10527;52.124;5.196;2022-10-22T08:33:14;8.38;;;1.40;;
20731;SDS011;10527;52.124;5.196;2022-10-22T08:35:45;5.57;;;1.75;;
20731;SDS011;10527;52.124;5.196;2022-10-22T08:38:15;5.93;;;1.40;;
20731;SDS011;10527;52.124;5.196;2022-10-22T08:40:43;8.25;;;1.73;;
20731;SDS011;10527;52.124;5.196;2022-10-22T08:49:16;6.82;;;1.40;;
20731;SDS011;10527;52.124;5.196;2022-10-22T08:51:51;7.20;;;1.30;;
20731;SDS011;10527;52.124;5.196;2022-10-22T08:54:23;4.60;;;1.27;;
20731;SDS011;10527;52.124;5.196;2022-10-22T09:06:25;7.47;;;2.22;;
20731;SDS011;10527;52.124;5.196;2022-10-22T09:08:57;5.28;;;1.40;;
20731;SDS011;10527;52.124;5.196;2022-10-22T09:11:46;3.85;;;1.02;;
20731;SDS011;10527;52.124;5.196;2022-10-22T09:14:32;5.43;;;1.45;;
20731;SDS011;10527;52.124;5.196;2022-10-22T09:20:26;2.35;;;1.05;;
20731;SDS011;10527;52.124;5.196;2022-10-22T09:26:11;6.63;;;1.08;;
20731;SDS011;10527;52.124;5.196;2022-10-22T09:28:41;11.38;;;1.85;;
20731;SDS011;10527;52.124;5.196;2022-10-22T09:31:09;4.80;;;1.48;;
20731;SDS011;10527;52.124;5.196;2022-10-22T09:33:40;6.60;;;1.17;;
20731;SDS011;10527;52.124;5.196;2022-10-22T09:36:33;5.70;;;2.47;;
20731;SDS011;10527;52.124;5.196;2022-10-22T09:39:28;4.70;;;1.23;;
20731;SDS011;10527;52.124;5.196;2022-10-22T09:42:02;6.53;;;1.30;;
20731;SDS011;10527;52.124;5.196;2022-10-22T09:44:31;6.32;;;1.40;;
20731;SDS011;10527;52.124;5.196;2022-10-22T09:47:05;8.50;;;1.27;;
20731;SDS011;10527;52.124;5.196;2022-10-22T09:53:04;4.85;;;1.00;;
20731;SDS011;10527;52.124;5.196;2022-10-22T09:55:51;7.45;;;1.60;;
20731;SDS011;10527;52.124;5.196;2022-10-22T09:58:25;4.60;;;1.05;;
20731;SDS011;10527;52.124;5.196;2022-10-22T10:00:55;10.63;;;1.60;;
20731;SDS011;10527;52.124;5.196;2022-10-22T10:03:26;5.40;;;1.23;;
20731;SDS011;10527;52.124;5.196;2022-10-22T10:05:59;6.22;;;1.50;;
20731;SDS011;10527;52.124;5.196;2022-10-22T10:08:32;3.90;;;1.02;;
20731;SDS011;10527;52.124;5.196;2022-10-22T10:11:09;7.05;;;1.60;;
20731;SDS011;10527;52.124;5.196;2022-10-22T10:14:00;8.43;;;1.58;;
20731;SDS011;10527;52.124;5.196;2022-10-22T10:16:55;7.07;;;1.27;;
20731;SDS011;10527;52.124;5.196;2022-10-22T10:25:52;7.65;;;1.52;;
20731;SDS011;10527;52.124;5.196;2022-10-22T10:33:46;7.72;;;1.35;;
20731;SDS011;10527;52.124;5.196;2022-10-22T10:36:25;5.25;;;1.40;;
20731;SDS011;10527;52.124;5.196;2022-10-22T10:45:24;6.93;;;1.63;;
20731;SDS011;10527;52.124;5.196;2022-10-22T10:51:18;4.93;;;1.08;;
20731;SDS011;10527;52.124;5.196;2022-10-22T11:07:57;4.55;;;1.00;;
20731;SDS011;10527;52.124;5.196;2022-10-22T11:10:54;3.05;;;0.93;;
20731;SDS011;10527;52.124;5.196;2022-10-22T11:13:30;6.13;;;1.10;;
20731;SDS011;10527;52.124;5.196;2022-10-22T11:16:32;5.88;;;1.27;;
20731;SDS011;10527;52.124;5.196;2022-10-22T11:19:40;7.43;;;0.82;;
20731;SDS011;10527;52.124;5.196;2022-10-22T11:22:33;8.48;;;1.60;;
20731;SDS011;10527;52.124;5.196;2022-10-22T11:25:47;8.40;;;2.58;;
20731;SDS011;10527;52.124;5.196;2022-10-22T11:28:17;4.07;;;0.95;;
20731;SDS011;10527;52.124;5.196;2022-10-22T11:31:03;12.52;;;1.77;;
20731;SDS011;10527;52.124;5.196;2022-10-22T11:33:51;8.38;;;1.40;;
20731;SDS011;10527;52.124;5.196;2022-10-22T11:36:47;6.80;;;1.02;;
20731;SDS011;10527;52.124;5.196;2022-10-22T11:39:38;7.68;;;1.73;;
20731;SDS011;10527;52.124;5.196;2022-10-22T11:42:09;6.15;;;1.08;;
20731;SDS011;10527;52.124;5.196;2022-10-22T11:45:22;11.82;;;1.75;;
20731;SDS011;10527;52.124;5.196;2022-10-22T12:03:43;8.23;;;1.35;;
20731;SDS011;10527;52.124;5.196;2022-10-22T12:06:57;8.15;;;1.60;;
20731;SDS011;10527;52.124;5.196;2022-10-22T12:09:27;6.03;;;1.25;;
20731;SDS011;10527;52.124;5.196;2022-10-22T12:12:10;7.25;;;1.45;;
20731;SDS011;10527;52.124;5.196;2022-10-22T12:18:02;7.63;;;1.65;;
20731;SDS011;10527;52.124;5.196;2022-10-22T12:20:31;6.00;;;1.23;;
20731;SDS011;10527;52.124;5.196;2022-10-22T12:22:57;6.53;;;1.45;;
20731;SDS011;10527;52.124;5.196;2022-10-22T12:25:29;11.02;;;1.50;;
20731;SDS011;10527;52.124;5.196;2022-10-22T12:28:01;7.68;;;1.23;;
20731;SDS011;10527;52.124;5.196;2022-10-22T12:30:31;6.45;;;2.45;;
20731;SDS011;10527;52.124;5.196;2022-10-22T12:33:01;5.47;;;1.25;;
20731;SDS011;10527;52.124;5.196;2022-10-22T12:35:32;8.52;;;2.38;;
20731;SDS011;10527;52.124;5.196;2022-10-22T12:38:15;11.82;;;1.45;;
20731;SDS011;10527;52.124;5.196;2022-10-22T12:40:50;6.78;;;1.13;;
20731;SDS011;10527;52.124;5.196;2022-10-22T12:43:25;10.38;;;1.48;;
20731;SDS011;10527;52.124;5.196;2022-10-22T12:45:55;9.55;;;1.33;;
20731;SDS011;10527;52.124;5.196;2022-10-22T12:48:31;6.13;;;1.00;;
20731;SDS011;10527;52.124;5.196;2022-10-22T12:51:04;7.50;;;1.50;;
20731;SDS011;10527;52.124;5.196;2022-10-22T12:56:12;6.65;;;1.20;;
20731;SDS011;10527;52.124;5.196;2022-10-22T12:58:47;7.82;;;1.15;;
20731;SDS011;10527;52.124;5.196;2022-10-22T13:01:24;6.10;;;1.48;;
20731;SDS011;10527;52.124;5.196;2022-10-22T13:09:57;4.88;;;1.30;;
20731;SDS011;10527;52.124;5.196;2022-10-22T13:12:26;8.20;;;1.65;;
20731;SDS011;10527;52.124;5.196;2022-10-22T13:15:20;7.65;;;1.23;;
20731;SDS011;10527;52.124;5.196;2022-10-22T13:20:57;9.50;;;2.72;;
20731;SDS011;10527;52.124;5.196;2022-10-22T13:23:32;5.95;;;1.33;;
20731;SDS011;10527;52.124;5.196;2022-10-22T13:26:03;10.15;;;3.13;;
20731;SDS011;10527;52.124;5.196;2022-10-22T13:28:52;9.32;;;1.65;;
20731;SDS011;10527;52.124;5.196;2022-10-22T13:31:23;6.97;;;1.52;;
20731;SDS011;10527;52.124;5.196;2022-10-22T13:33:55;8.98;;;1.70;;
20731;SDS011;10527;52.124;5.196;2022-10-22T13:36:35;10.35;;;2.25;;
20731;SDS011;10527;52.124;5.196;2022-10-22T13:39:05;11.38;;;1.70;;
20731;SDS011;10527;52.124;5.196;2022-10-22T13:41:41;7.35;;;1.25;;
20731;SDS011;10527;52.124;5.196;2022-10-22T13:44:07;6.43;;;1.13;;
20731;SDS011;10527;52.124;5.196;2022-10-22T13:46:34;8.98;;;1.63;;
20731;SDS011;10527;52.124;5.196;2022-10-22T13:49:19;6.03;;;1.83;;
20731;SDS011;10527;52.124;5.196;2022-10-22T13:51:49;10.32;;;1.55;;
20731;SDS011;10527;52.124;5.196;2022-10-22T13:54:22;6.07;;;1.40;;
20731;SDS011;10527;52.124;5.196;2022-10-22T13:56:50;9.63;;;1.50;;
20731;SDS011;10527;52.124;5.196;2022-10-22T13:59:19;5.70;;;1.30;;
20731;SDS011;10527;52.124;5.196;2022-10-22T14:01:49;6.03;;;1.35;;
20731;SDS011;10527;52.124;5.196;2022-10-22T14:04:16;10.55;;;2.03;;
20731;SDS011;10527;52.124;5.196;2022-10-22T14:06:43;13.65;;;2.35;;
20731;SDS011;10527;52.124;5.196;2022-10-22T14:09:12;10.40;;;2.10;;
20731;SDS011;10527;52.124;5.196;2022-10-22T14:11:41;8.70;;;1.30;;
20731;SDS011;10527;52.124;5.196;2022-10-22T14:14:08;6.82;;;1.65;;
20731;SDS011;10527;52.124;5.196;2022-10-22T14:16:39;7.10;;;1.52;;
20731;SDS011;10527;52.124;5.196;2022-10-22T14:19:06;7.65;;;1.48;;
20731;SDS011;10527;52.124;5.196;2022-10-22T14:21:41;8.73;;;1.95;;
20731;SDS011;10527;52.124;5.196;2022-10-22T14:24:09;9.77;;;2.03;;
20731;SDS011;10527;52.124;5.196;2022-10-22T14:26:38;8.55;;;1.58;;
20731;SDS011;10527;52.124;5.196;2022-10-22T14:29:05;6.57;;;1.55;;
20731;SDS011;10527;52.124;5.196;2022-10-22T14:31:36;6.65;;;1.15;;
20731;SDS011;10527;52.124;5.196;2022-10-22T14:34:06;5.65;;;0.98;;
20731;SDS011;10527;52.124;5.196;2022-10-22T14:36:38;7.28;;;1.55;;
20731;SDS011;10527;52.124;5.196;2022-10-22T14:39:08;9.60;;;1.42;;
20731;SDS011;10527;52.124;5.196;2022-10-22T14:41:35;4.10;;;1.45;;
20731;SDS011;10527;52.124;5.196;2022-10-22T14:44:03;5.10;;;1.17;;
20731;SDS011;10527;52.124;5.196;2022-10-22T14:46:30;8.45;;;1.63;;
20731;SDS011;10527;52.124;5.196;2022-10-22T14:48:56;4.68;;;1.35;;
20731;SDS011;10527;52.124;5.196;2022-10-22T14:51:23;7.13;;;1.33;;
20731;SDS011;10527;52.124;5.196;2022-10-22T14:53:50;5.60;;;1.42;;
20731;SDS011;10527;52.124;5.196;2022-10-22T14:56:17;5.60;;;1.85;;
20731;SDS011;10527;52.124;5.196;2022-10-22T14:58:46;5.50;;;1.15;;
20731;SDS011;10527;52.124;5.196;2022-10-22T15:01:14;8.52;;;2.22;;
20731;SDS011;10527;52.124;5.196;2022-10-22T15:03:41;5.80;;;1.00;;
20731;SDS011;10527;52.124;5.196;2022-10-22T15:06:08;7.88;;;2.00;;
20731;SDS011;10527;52.124;5.196;2022-10-22T15:08:35;7.75;;;1.75;;
20731;SDS011;10527;52.124;5.196;2022-10-22T15:11:06;6.40;;;1.30;;
20731;SDS011;10527;52.124;5.196;2022-10-22T15:13:37;5.05;;;1.33;;
20731;SDS011;10527;52.124;5.196;2022-10-22T15:16:05;4.72;;;1.45;;
20731;SDS011;10527;52.124;5.196;2022-10-22T15:18:35;6.38;;;1.10;;
20731;SDS011;10527;52.124;5.196;2022-10-22T15:21:04;13.82;;;3.13;;
20731;SDS011;10527;52.124;5.196;2022-10-22T15:23:38;6.30;;;0.90;;
20731;SDS011;10527;52.124;5.196;2022-10-22T15:26:06;7.93;;;2.20;;
20731;SDS011;10527;52.124;5.196;2022-10-22T15:28:37;5.28;;;1.23;;
20731;SDS011;10527;52.124;5.196;2022-10-22T15:31:05;7.65;;;1.30;;
20731;SDS011;10527;52.124;5.196;2022-10-22T15:33:33;9.07;;;1.48;;
20731;SDS011;10527;52.124;5.196;2022-10-22T15:36:14;8.20;;;1.83;;
20731;SDS011;10527;52.124;5.196;2022-10-22T15:38:42;4.40;;;1.13;;
20731;SDS011;10527;52.124;5.196;2022-10-22T15:41:09;8.73;;;1.08;;
20731;SDS011;10527;52.124;5.196;2022-10-22T15:43:38;11.13;;;2.25;;
20731;SDS011;10527;52.124;5.196;2022-10-22T15:46:12;6.53;;;1.67;;
20731;SDS011;10527;52.124;5.196;2022-10-22T15:48:44;4.78;;;0.82;;
20731;SDS011;10527;52.124;5.196;2022-10-22T15:51:12;8.93;;;1.25;;
20731;SDS011;10527;52.124;5.196;2022-10-22T15:53:42;6.78;;;1.98;;
20731;SDS011;10527;52.124;5.196;2022-10-22T15:56:15;8.52;;;1.45;;
20731;SDS011;10527;52.124;5.196;2022-10-22T15:58:42;5.45;;;1.10;;
20731;SDS011;10527;52.124;5.196;2022-10-22T16:01:10;7.95;;;1.30;;
20731;SDS011;10527;52.124;5.196;2022-10-22T16:03:39;5.85;;;1.55;;
20731;SDS011;10527;52.124;5.196;2022-10-22T16:06:06;7.90;;;1.38;;
20731;SDS011;10527;52.124;5.196;2022-10-22T16:08:34;8.35;;;1.73;;
20731;SDS011;10527;52.124;5.196;2022-10-22T16:11:02;10.07;;;1.40;;
20731;SDS011;10527;52.124;5.196;2022-10-22T16:13:29;7.88;;;1.33;;
20731;SDS011;10527;52.124;5.196;2022-10-22T16:15:56;4.07;;;1.35;;
20731;SDS011;10527;52.124;5.196;2022-10-22T16:18:24;7.55;;;1.30;;
20731;SDS011;10527;52.124;5.196;2022-10-22T16:20:50;7.90;;;1.65;;
20731;SDS011;10527;52.124;5.196;2022-10-22T16:23:17;6.82;;;1.67;;
20731;SDS011;10527;52.124;5.196;2022-10-22T16:25:45;11.73;;;2.08;;
20731;SDS011;10527;52.124;5.196;2022-10-22T16:28:12;4.38;;;1.50;;
20731;SDS011;10527;52.124;5.196;2022-10-22T16:30:39;8.13;;;1.80;;
20731;SDS011;10527;52.124;5.196;2022-10-22T16:33:07;6.47;;;1.48;;
20731;SDS011;10527;52.124;5.196;2022-10-22T16:35:39;5.13;;;1.67;;
20731;SDS011;10527;52.124;5.196;2022-10-22T16:38:08;9.68;;;1.88;;
20731;SDS011;10527;52.124;5.196;2022-10-22T16:40:36;7.50;;;1.73;;
20731;SDS011;10527;52.124;5.196;2022-10-22T16:43:03;4.05;;;1.30;;
20731;SDS011;10527;52.124;5.196;2022-10-22T16:45:30;3.70;;;1.25;;
20731;SDS011;10527;52.124;5.196;2022-10-22T16:47:56;4.60;;;1.27;;
20731;SDS011;10527;52.124;5.196;2022-10-22T16:50:23;4.78;;;1.70;;
20731;SDS011;10527;52.124;5.196;2022-10-22T16:52:50;9.35;;;2.60;;
20731;SDS011;10527;52.124;5.196;2022-10-22T16:55:17;13.52;;;5.05;;
20731;SDS011;10527;52.124;5.196;2022-10-22T16:57:48;7.57;;;4.18;;
20731;SDS011;10527;52.124;5.196;2022-10-22T17:00:17;8.20;;;5.00;;
20731;SDS011;10527;52.124;5.196;2022-10-22T17:02:49;11.77;;;5.82;;
20731;SDS011;10527;52.124;5.196;2022-10-22T17:05:19;14.57;;;5.90;;
20731;SDS011;10527;52.124;5.196;2022-10-22T17:07:46;14.85;;;6.50;;
20731;SDS011;10527;52.124;5.196;2022-10-22T17:10:14;14.07;;;7.40;;
20731;SDS011;10527;52.124;5.196;2022-10-22T17:12:44;16.80;;;8.95;;
20731;SDS011;10527;52.124;5.196;2022-10-22T17:15:12;19.80;;;9.48;;